Terminal Aerodrome Forecast
Issued by NWS Wichita, KS

Home | Current Version | Previous Version | Text Only | Print | Product List | Glossary Off
Versions: 1 2 3 4 5 6 7 8 9 10 11 12 13 14 15 16 17 18 19

529
FTUS43 KICT 302336
TAFICT
TAF
KICT 302336Z 3100/3124 15012KT P6SM BKN250
     FM311000 17007KT P6SM VCTS BKN025 BKN060CB
     FM311400 18007KT 5SM -TSRA BKN015 BKN040CB
     FM311800 09007KT P6SM BKN040=

USA.gov is the U.S. government's official web portal to all federal, state and local government web resources and services.